Time;durP1;ratioP1;P1;durP2;ratioP2;P2;SDS_P1;SDS_P2;PMS_P1;PMS_P2;Temp;Humidity;BMP_temperature;BMP_pressure;BME280_temperature;BME280_humidity;BME280_pressure;Samples;Min_cycle;Max_cycle;Signal;HPM_P1;HPM_P2
2021/12/26 00:01:15;;;;;;;11.38;4.13;;;-5.40;99.90;;;;;;4899721;29;20072;-74
2021/12/26 00:03:46;;;;;;;6.10;3.95;;;-5.40;99.90;;;;;;4916561;29;20044;-75
2021/12/26 00:06:20;;;;;;;8.70;4.25;;;-5.40;99.90;;;;;;4899149;29;20052;-74
2021/12/26 00:08:46;;;;;;;8.07;3.60;;;-5.40;99.90;;;;;;4903473;29;20527;-74
2021/12/26 00:11:13;;;;;;;8.30;4.25;;;-5.40;99.90;;;;;;4898508;29;20044;-75
2021/12/26 00:13:39;;;;;;;6.57;3.88;;;-5.40;99.90;;;;;;4899468;29;20543;-76
2021/12/26 00:16:08;;;;;;;8.90;4.00;;;-5.50;99.90;;;;;;4916429;29;20169;-75
2021/12/26 00:18:42;;;;;;;7.35;3.90;;;-5.40;99.90;;;;;;4915729;29;20032;-75
2021/12/26 00:21:13;;;;;;;8.00;4.30;;;-5.50;99.90;;;;;;4899043;29;20438;-75
2021/12/26 00:23:48;;;;;;;6.15;3.65;;;-5.50;99.90;;;;;;4913335;29;20048;-75
2021/12/26 00:26:14;;;;;;;8.20;4.03;;;-5.50;99.90;;;;;;4898615;29;20552;-74
2021/12/26 00:28:41;;;;;;;8.13;3.97;;;-5.50;99.90;;;;;;4899658;29;20040;-74
2021/12/26 00:31:07;;;;;;;7.32;3.80;;;-5.50;99.90;;;;;;4898942;29;20135;-74
2021/12/26 00:33:38;;;;;;;6.53;3.65;;;-5.60;99.90;;;;;;4916427;29;20062;-75
2021/12/26 00:36:04;;;;;;;7.60;4.22;;;-5.60;99.90;;;;;;4904745;29;20036;-75
2021/12/26 00:38:29;;;;;;;7.47;3.75;;;-5.60;99.90;;;;;;4895160;29;20059;-75
2021/12/26 00:40:55;;;;;;;7.57;3.92;;;-5.60;99.90;;;;;;4914752;29;20755;-75
2021/12/26 00:43:24;;;;;;;6.38;3.83;;;-5.70;99.90;;;;;;4898495;29;20051;-75
2021/12/26 00:45:50;;;;;;;6.25;3.30;;;-5.70;99.90;;;;;;4898078;29;20072;-75
2021/12/26 00:48:18;;;;;;;6.65;4.05;;;-5.70;99.90;;;;;;4898480;29;20068;-75
2021/12/26 00:50:44;;;;;;;7.00;3.38;;;-5.70;99.90;;;;;;4898191;29;20044;-75
2021/12/26 00:53:14;;;;;;;5.55;2.90;;;-5.70;99.90;;;;;;4914520;29;20060;-76
2021/12/26 00:55:40;;;;;;;7.88;3.40;;;-5.70;99.90;;;;;;4915357;29;20048;-74
2021/12/26 00:58:06;;;;;;;7.25;3.03;;;-5.80;99.90;;;;;;4901384;29;20055;-74
2021/12/26 01:00:40;;;;;;;10.93;3.33;;;-5.70;99.90;;;;;;4897525;29;20500;-75
2021/12/26 01:03:06;;;;;;;6.57;3.20;;;-5.80;99.90;;;;;;4898433;29;20127;-75
2021/12/26 01:05:33;;;;;;;5.75;2.90;;;-5.80;99.90;;;;;;4915029;29;20114;-75
2021/12/26 01:08:02;;;;;;;5.20;2.88;;;-5.80;99.90;;;;;;4915068;29;20079;-75
2021/12/26 01:10:43;;;;;;;4.93;2.72;;;-5.80;99.90;;;;;;4911093;29;20051;-74
2021/12/26 01:13:26;;;;;;;6.18;2.67;;;-5.80;99.90;;;;;;4912917;29;20466;-75
2021/12/26 01:16:00;;;;;;;6.10;2.70;;;-5.80;99.90;;;;;;4898007;29;20052;-76
2021/12/26 01:18:28;;;;;;;5.47;2.63;;;-5.80;99.90;;;;;;4901938;29;20035;-76
2021/12/26 01:21:04;;;;;;;5.57;2.88;;;-5.80;99.90;;;;;;4914879;29;20048;-75
2021/12/26 01:23:33;;;;;;;5.50;2.67;;;-5.70;99.90;;;;;;4898255;29;20048;-75
2021/12/26 01:26:02;;;;;;;6.63;2.17;;;-5.80;99.90;;;;;;4898290;29;20048;-75
2021/12/26 01:28:34;;;;;;;7.47;2.45;;;-5.70;99.90;;;;;;4897676;29;20480;-76
2021/12/26 01:31:02;;;;;;;5.72;2.22;;;-5.70;99.90;;;;;;4898435;29;20048;-75
2021/12/26 01:33:29;;;;;;;4.63;2.47;;;-5.70;99.90;;;;;;4914885;29;20567;-76
2021/12/26 01:35:55;;;;;;;4.70;3.17;;;-5.70;99.90;;;;;;4900242;29;20040;-76
2021/12/26 01:38:22;;;;;;;5.03;2.85;;;-5.70;99.90;;;;;;4906272;29;20480;-77
2021/12/26 01:40:52;;;;;;;5.57;2.90;;;-5.70;99.90;;;;;;4920938;29;20044;-76
2021/12/26 01:43:21;;;;;;;5.28;2.40;;;-5.70;99.90;;;;;;4894963;29;20040;-76
2021/12/26 01:45:48;;;;;;;6.72;2.65;;;-5.70;99.90;;;;;;4898101;29;20036;-76
2021/12/26 01:48:15;;;;;;;7.15;2.92;;;-5.70;99.90;;;;;;4914822;29;20083;-76
2021/12/26 01:50:43;;;;;;;5.38;2.65;;;-5.70;99.90;;;;;;4898167;29;20040;-75
2021/12/26 01:53:12;;;;;;;9.05;2.92;;;-5.70;99.90;;;;;;4914215;29;20051;-76
2021/12/26 01:55:44;;;;;;;7.22;2.45;;;-5.70;99.90;;;;;;4896966;29;20047;-75
2021/12/26 01:58:17;;;;;;;4.43;2.53;;;-5.70;99.90;;;;;;4838014;29;20584;-76
2021/12/26 02:00:47;;;;;;;5.63;2.90;;;-5.70;99.90;;;;;;4893256;29;20427;-76
2021/12/26 02:03:13;;;;;;;4.63;2.35;;;-5.80;99.90;;;;;;4897403;29;20052;-76
2021/12/26 02:05:38;;;;;;;4.78;2.55;;;-5.70;99.90;;;;;;4914548;29;20036;-76
2021/12/26 02:08:06;;;;;;;4.40;2.63;;;-5.80;99.90;;;;;;4897260;29;20780;-76
2021/12/26 02:10:35;;;;;;;6.18;2.70;;;-5.80;99.90;;;;;;4911622;29;20130;-75
2021/12/26 02:13:04;;;;;;;5.40;2.80;;;-5.90;99.90;;;;;;4896106;29;20080;-75
2021/12/26 02:15:30;;;;;;;6.18;2.80;;;-5.80;99.90;;;;;;4895296;29;20044;-76
2021/12/26 02:17:56;;;;;;;9.02;2.88;;;-5.80;99.90;;;;;;4897663;29;20044;-75
2021/12/26 02:20:49;;;;;;;4.72;2.63;;;-5.80;99.90;;;;;;4895555;29;20436;-75
2021/12/26 02:23:31;;;;;;;4.82;2.45;;;-5.70;99.90;;;;;;4896019;29;20130;-75
2021/12/26 02:28:27;;;;;;;4.63;2.55;;;-5.80;99.90;;;;;;4897709;29;20127;-75
2021/12/26 02:30:58;;;;;;;5.38;2.40;;;-5.80;99.90;;;;;;4897656;29;20144;-75
2021/12/26 02:33:26;;;;;;;7.03;2.65;;;-5.90;99.90;;;;;;4896417;29;20135;-76
2021/12/26 02:35:53;;;;;;;4.03;2.38;;;-5.90;99.90;;;;;;4914886;29;20087;-75
2021/12/26 02:38:19;;;;;;;4.60;2.35;;;-5.90;99.90;;;;;;4914271;29;20107;-75
2021/12/26 02:40:50;;;;;;;5.30;2.30;;;-5.90;99.90;;;;;;4914371;29;20167;-76
2021/12/26 02:43:17;;;;;;;4.72;2.40;;;-5.90;99.90;;;;;;4894732;29;20040;-76
2021/12/26 02:45:46;;;;;;;4.60;2.25;;;-5.90;99.90;;;;;;4913883;29;20044;-75
2021/12/26 02:48:13;;;;;;;4.85;2.33;;;-5.90;99.90;;;;;;4897904;29;20540;-76
2021/12/26 02:50:40;;;;;;;4.57;2.15;;;-5.80;99.90;;;;;;4900678;29;20052;-75
2021/12/26 02:53:08;;;;;;;4.07;2.30;;;-5.80;99.90;;;;;;4900400;29;20079;-75
2021/12/26 02:55:34;;;;;;;6.88;2.17;;;-5.80;99.90;;;;;;4917887;29;20056;-75
2021/12/26 02:58:06;;;;;;;3.72;2.13;;;-5.80;99.90;;;;;;4901376;29;20433;-75
2021/12/26 03:00:37;;;;;;;4.22;2.10;;;-5.80;99.90;;;;;;4916643;29;20051;-75
2021/12/26 03:03:05;;;;;;;3.50;1.90;;;-5.80;99.90;;;;;;4918207;29;20056;-75
2021/12/26 03:05:34;;;;;;;4.35;2.10;;;-5.80;99.90;;;;;;4917521;29;20044;-76
2021/12/26 03:08:00;;;;;;;5.45;2.28;;;-4.70;99.90;;;;;;4917652;29;20048;-76
2021/12/26 03:10:27;;;;;;;4.30;2.22;;;-5.80;99.90;;;;;;4900659;29;20040;-76
2021/12/26 03:12:59;;;;;;;3.83;2.35;;;-5.80;99.90;;;;;;4917848;29;20089;-76
2021/12/26 03:15:27;;;;;;;4.03;2.13;;;-5.80;99.90;;;;;;4900071;29;20052;-76
2021/12/26 03:17:53;;;;;;;4.80;2.05;;;-5.80;99.90;;;;;;4917945;29;20099;-76
2021/12/26 03:20:21;;;;;;;5.90;2.67;;;-5.80;99.90;;;;;;4917068;29;20459;-76
2021/12/26 03:22:47;;;;;;;3.22;2.08;;;-5.80;99.90;;;;;;4900309;29;20559;-76
2021/12/26 03:25:18;;;;;;;6.75;2.20;;;-5.90;99.90;;;;;;4900709;29;20048;-76
2021/12/26 03:27:44;;;;;;;5.15;2.25;;;-5.90;99.90;;;;;;4916889;29;20136;-76
2021/12/26 03:30:13;;;;;;;5.15;2.15;;;-5.90;99.90;;;;;;4902340;29;20131;-75
2021/12/26 03:32:40;;;;;;;4.65;2.33;;;-5.90;99.90;;;;;;4900516;29;20071;-75
2021/12/26 03:35:06;;;;;;;4.95;2.17;;;-5.90;99.90;;;;;;4916937;29;20076;-76
2021/12/26 03:37:32;;;;;;;5.50;2.38;;;-5.90;99.90;;;;;;4899921;29;20492;-76
2021/12/26 03:39:58;;;;;;;4.35;2.15;;;-5.90;99.90;;;;;;4917383;29;20044;-75
2021/12/26 03:42:23;;;;;;;;;;;-5.90;99.90;;;;;;4899872;29;20448;-76
2021/12/26 03:44:49;;;;;;;3.88;2.15;;;-5.90;99.90;;;;;;4900515;29;19926;-76
2021/12/26 03:47:15;;;;;;;6.20;2.65;;;-5.90;99.90;;;;;;4899717;29;20123;-76
2021/12/26 03:49:41;;;;;;;4.88;2.08;;;-5.90;99.90;;;;;;4916777;29;20163;-76
2021/12/26 03:52:07;;;;;;;3.63;2.00;;;-5.90;99.90;;;;;;4916852;29;20056;-76
2021/12/26 03:54:33;;;;;;;4.75;2.30;;;-5.90;99.90;;;;;;4899769;29;20068;-75
2021/12/26 03:57:00;;;;;;;4.47;2.10;;;-6.00;99.90;;;;;;4899669;29;20508;-75
2021/12/26 03:59:27;;;;;;;4.25;2.05;;;-6.00;99.90;;;;;;4899427;29;20068;-76
2021/12/26 04:01:54;;;;;;;5.95;2.60;;;-6.10;99.90;;;;;;4916687;29;20103;-76
2021/12/26 04:04:19;;;;;;;7.18;2.47;;;-6.10;99.90;;;;;;4899118;29;20076;-76
2021/12/26 04:06:45;;;;;;;6.35;2.50;;;-6.10;99.90;;;;;;4916974;29;20032;-76
2021/12/26 04:09:11;;;;;;;5.05;2.40;;;-6.20;99.90;;;;;;4916333;29;20087;-76
2021/12/26 04:11:39;;;;;;;;;;;-6.20;99.90;;;;;;4916630;29;20484;-76
2021/12/26 04:14:04;;;;;;;4.40;2.08;;;-6.20;99.90;;;;;;4916976;29;19923;-76
2021/12/26 04:16:30;;;;;;;4.60;1.95;;;-6.20;99.90;;;;;;4899184;29;20040;-76
2021/12/26 04:18:55;;;;;;;;;;;-6.30;99.90;;;;;;4900195;29;20135;-76
2021/12/26 04:21:21;;;;;;;4.05;2.05;;;-6.30;99.90;;;;;;4899089;29;19923;-76
2021/12/26 04:23:46;;;;;;;4.65;2.03;;;-6.30;99.90;;;;;;4916157;29;20048;-77
2021/12/26 04:26:12;;;;;;;4.57;2.17;;;-6.30;99.90;;;;;;4898918;29;20127;-76
2021/12/26 04:28:38;;;;;;;3.03;1.85;;;-6.00;99.90;;;;;;4916568;29;20044;-76
2021/12/26 04:31:03;;;;;;;6.38;2.28;;;-6.30;99.90;;;;;;4898959;29;20048;-76
2021/12/26 04:33:29;;;;;;;3.40;1.98;;;-6.30;99.90;;;;;;4899537;29;20083;-76
2021/12/26 04:35:54;;;;;;;;;;;-6.30;99.90;;;;;;4916707;29;20040;-76
2021/12/26 04:38:20;;;;;;;4.38;1.98;;;-6.30;99.90;;;;;;4915665;29;19919;-77
2021/12/26 04:40:46;;;;;;;3.97;2.13;;;-6.20;99.90;;;;;;4899262;29;20067;-76
2021/12/26 04:43:11;;;;;;;;;;;-6.20;99.90;;;;;;4916073;29;20502;-76
2021/12/26 04:45:37;;;;;;;3.58;2.10;;;-6.20;99.90;;;;;;4898795;29;20328;-76
2021/12/26 04:48:03;;;;;;;3.35;1.88;;;-6.30;99.90;;;;;;4916428;29;20123;-76
2021/12/26 04:50:29;;;;;;;5.28;2.03;;;-6.20;99.90;;;;;;4898814;29;20578;-76
2021/12/26 04:52:55;;;;;;;4.95;2.10;;;-6.30;99.90;;;;;;4898351;29;20052;-75
2021/12/26 04:55:26;;;;;;;3.25;1.90;;;-6.30;99.90;;;;;;4898766;29;20052;-76
2021/12/26 04:57:52;;;;;;;4.80;2.20;;;-6.30;99.90;;;;;;4915994;29;20499;-76
2021/12/26 05:00:21;;;;;;;3.88;1.95;;;-6.40;99.90;;;;;;4898954;29;20048;-76
2021/12/26 05:02:48;;;;;;;5.07;2.25;;;-6.40;99.90;;;;;;4915751;29;20052;-76
2021/12/26 05:05:14;;;;;;;5.95;1.98;;;-6.40;99.90;;;;;;4915383;29;20043;-76
2021/12/26 05:07:42;;;;;;;3.10;1.92;;;-6.40;99.90;;;;;;4898529;29;20052;-76
2021/12/26 05:10:10;;;;;;;3.60;1.98;;;-6.40;99.90;;;;;;4899121;29;20052;-76
2021/12/26 05:12:36;;;;;;;5.10;2.15;;;-6.40;99.90;;;;;;4897746;29;20183;-76
2021/12/26 05:15:07;;;;;;;5.10;2.33;;;-6.40;99.90;;;;;;4897742;29;20134;-76
2021/12/26 05:17:33;;;;;;;4.43;2.20;;;-6.40;99.90;;;;;;4898274;29;20048;-76
2021/12/26 05:19:59;;;;;;;6.65;2.47;;;-6.40;99.90;;;;;;4915744;29;20184;-76
2021/12/26 05:22:25;;;;;;;5.80;1.90;;;-6.30;99.90;;;;;;4898044;29;20044;-76
2021/12/26 05:24:51;;;;;;;4.40;2.08;;;-6.40;99.90;;;;;;4915602;29;20425;-76
2021/12/26 05:27:17;;;;;;;4.45;2.33;;;-6.40;99.90;;;;;;4914483;29;20458;-77
2021/12/26 05:29:43;;;;;;;4.47;2.38;;;-6.40;99.90;;;;;;4898614;29;20103;-76
2021/12/26 05:32:09;;;;;;;4.18;2.30;;;-6.40;99.90;;;;;;4914715;29;20116;-76
2021/12/26 05:34:34;;;;;;;;;;;-6.40;99.90;;;;;;4898380;29;20052;-76
2021/12/26 05:37:00;;;;;;;3.75;2.10;;;-6.40;99.90;;;;;;4915336;29;20322;-76
2021/12/26 05:39:26;;;;;;;;;;;-6.40;99.90;;;;;;4898909;29;20052;-77
2021/12/26 05:41:54;;;;;;;4.45;2.20;;;-6.50;99.90;;;;;;4914620;29;19931;-77
2021/12/26 05:44:20;;;;;;;3.47;2.00;;;-6.50;99.90;;;;;;4915405;29;20136;-77
2021/12/26 05:46:45;;;;;;;5.05;2.13;;;-6.50;99.90;;;;;;4914948;29;20119;-77
2021/12/26 05:49:11;;;;;;;4.22;2.00;;;-6.50;99.90;;;;;;4897450;29;20564;-76
2021/12/26 05:51:39;;;;;;;4.15;2.17;;;-6.40;99.90;;;;;;4914955;29;20060;-76
2021/12/26 05:54:05;;;;;;;4.32;2.03;;;-6.40;99.90;;;;;;4898174;29;20491;-76
2021/12/26 05:56:31;;;;;;;3.80;2.10;;;-6.30;99.90;;;;;;4897490;29;20059;-76
2021/12/26 05:58:56;;;;;;;4.28;2.03;;;-6.30;99.90;;;;;;4898203;29;20070;-76
2021/12/26 06:01:22;;;;;;;;;;;-6.30;99.90;;;;;;4903002;29;20040;-76
2021/12/26 06:03:47;;;;;;;4.35;2.13;;;-6.20;99.90;;;;;;4899063;29;19931;-77
2021/12/26 06:06:13;;;;;;;5.03;2.05;;;-6.20;99.90;;;;;;4898216;29;20080;-77
2021/12/26 06:08:38;;;;;;;;;;;-6.20;99.90;;;;;;4915848;29;20041;-77
2021/12/26 06:11:04;;;;;;;4.97;1.83;;;-6.30;99.90;;;;;;4913553;29;19923;-77
2021/12/26 06:13:31;;;;;;;5.03;2.00;;;-6.30;99.90;;;;;;4897771;29;20071;-77
2021/12/26 06:15:58;;;;;;;4.20;2.08;;;-6.30;99.90;;;;;;4915354;29;20048;-77
2021/12/26 06:18:23;;;;;;;6.63;2.17;;;-6.30;99.90;;;;;;4897443;29;20052;-77
2021/12/26 06:20:49;;;;;;;4.43;2.35;;;-6.30;99.90;;;;;;4898673;29;20971;-77
2021/12/26 06:23:14;;;;;;;;;;;-6.30;99.90;;;;;;4900708;29;20047;-77
2021/12/26 06:25:40;;;;;;;4.25;2.00;;;-6.30;99.90;;;;;;4918563;29;19923;-76
2021/12/26 06:28:06;;;;;;;3.83;2.00;;;-6.30;99.90;;;;;;4919014;29;20503;-76
2021/12/26 06:30:31;;;;;;;;;;;-6.20;99.90;;;;;;4901552;29;20054;-76
2021/12/26 06:32:57;;;;;;;3.30;1.90;;;-6.20;99.90;;;;;;4901412;29;20413;-76
2021/12/26 06:35:23;;;;;;;3.83;1.85;;;-6.30;99.90;;;;;;4901190;29;20457;-76
2021/12/26 06:37:48;;;;;;;;;;;-6.30;99.90;;;;;;4918533;29;20056;-76
2021/12/26 06:40:15;;;;;;;4.40;2.08;;;-6.20;99.90;;;;;;4918006;29;19923;-76
2021/12/26 06:42:43;;;;;;;4.18;2.20;;;-6.30;99.90;;;;;;4918486;29;20047;-76
2021/12/26 06:45:11;;;;;;;3.42;1.80;;;-6.30;99.90;;;;;;4902432;29;20044;-77
2021/12/26 06:47:37;;;;;;;4.00;2.17;;;-6.30;99.90;;;;;;4901691;29;20408;-77
2021/12/26 06:50:04;;;;;;;4.07;2.15;;;-6.20;99.90;;;;;;4901117;29;20899;-76
2021/12/26 06:52:30;;;;;;;4.13;2.30;;;-6.20;99.90;;;;;;4916939;29;20059;-77
2021/12/26 06:54:56;;;;;;;4.03;2.10;;;-6.20;99.90;;;;;;4901111;29;20059;-77
2021/12/26 06:57:22;;;;;;;4.25;2.40;;;-6.20;99.90;;;;;;4901125;29;20493;-76
2021/12/26 06:59:47;;;;;;;3.20;1.77;;;-6.10;99.90;;;;;;4900634;29;20048;-76
2021/12/26 07:02:13;;;;;;;5.95;2.25;;;-6.00;99.90;;;;;;4917974;29;20045;-76
2021/12/26 07:04:38;;;;;;;;;;;-6.00;99.90;;;;;;4901691;29;20123;-76
2021/12/26 07:07:04;;;;;;;4.55;2.50;;;-6.00;99.90;;;;;;4919624;29;19923;-76
2021/12/26 07:09:32;;;;;;;4.10;2.28;;;-6.00;99.90;;;;;;4900645;29;20512;-76
2021/12/26 07:11:58;;;;;;;4.47;2.20;;;-6.00;99.90;;;;;;4900848;29;20480;-76
2021/12/26 07:14:24;;;;;;;4.80;2.13;;;-6.10;99.90;;;;;;4899933;29;20075;-77
2021/12/26 07:16:49;;;;;;;;;;;-6.10;99.90;;;;;;4918245;29;20048;-77
2021/12/26 07:19:15;;;;;;;4.60;2.08;;;-6.10;99.90;;;;;;4900571;29;19938;-78
2021/12/26 07:21:41;;;;;;;4.20;1.95;;;-6.10;99.90;;;;;;4900333;29;20397;-77
2021/12/26 07:24:07;;;;;;;3.80;2.08;;;-6.10;99.90;;;;;;4917763;29;20492;-77
2021/12/26 07:26:33;;;;;;;3.58;2.20;;;-6.10;99.90;;;;;;4917541;29;20421;-77
2021/12/26 07:28:59;;;;;;;3.63;2.10;;;-6.10;99.90;;;;;;4917143;29;20047;-77
2021/12/26 07:31:25;;;;;;;5.85;2.60;;;-6.10;99.90;;;;;;4917347;29;20465;-77
2021/12/26 07:33:50;;;;;;;;;;;-6.10;99.90;;;;;;4916482;29;20048;-77
2021/12/26 07:36:16;;;;;;;4.45;2.30;;;-6.10;99.90;;;;;;4916920;29;19931;-77
2021/12/26 07:38:42;;;;;;;4.25;2.30;;;-6.10;99.90;;;;;;4900233;29;20198;-77
2021/12/26 07:41:07;;;;;;;4.20;2.20;;;-6.10;99.90;;;;;;4900122;29;20095;-77
2021/12/26 07:43:33;;;;;;;;;;;-6.10;99.90;;;;;;4900445;29;20550;-77
2021/12/26 07:45:58;;;;;;;5.07;2.05;;;-6.70;99.90;;;;;;4917151;29;19923;-77
2021/12/26 07:48:24;;;;;;;;;;;-6.20;99.90;;;;;;4900429;29;20044;-78
2021/12/26 07:50:49;;;;;;;6.05;2.72;;;-6.20;99.90;;;;;;4899989;29;19927;-78
2021/12/26 07:53:15;;;;;;;;;;;-6.20;99.90;;;;;;4917046;29;20053;-77
2021/12/26 07:55:41;;;;;;;4.25;2.40;;;-6.20;99.90;;;;;;4915263;29;19923;-77
2021/12/26 07:58:06;;;;;;;4.00;2.28;;;-6.20;99.90;;;;;;4900201;29;20040;-77
2021/12/26 08:00:32;;;;;;;5.13;2.40;;;-6.20;99.90;;;;;;4916335;29;20040;-76
2021/12/26 08:02:59;;;;;;;7.15;2.40;;;-6.20;99.90;;;;;;4901023;29;20036;-77
2021/12/26 08:05:25;;;;;;;6.20;2.72;;;-6.10;99.90;;;;;;4916774;29;20107;-77
2021/12/26 08:07:51;;;;;;;4.25;2.42;;;-6.10;99.90;;;;;;4900064;29;20084;-76
2021/12/26 08:10:17;;;;;;;4.97;2.30;;;-6.10;99.90;;;;;;4912179;29;20075;-77
2021/12/26 08:12:42;;;;;;;4.65;2.40;;;-6.00;99.90;;;;;;4916112;29;20044;-77
2021/12/26 08:15:08;;;;;;;;;;;-6.10;99.90;;;;;;4900245;29;20499;-77
2021/12/26 08:17:35;;;;;;;4.70;2.20;;;-6.10;99.90;;;;;;4898890;29;19930;-77
2021/12/26 08:20:02;;;;;;;5.25;3.13;;;-6.00;99.90;;;;;;4916588;29;20048;-77
2021/12/26 08:22:28;;;;;;;4.32;2.70;;;-6.00;99.90;;;;;;4899228;29;20563;-77
2021/12/26 08:24:53;;;;;;;4.70;2.40;;;-5.90;99.90;;;;;;4916048;29;20119;-77
2021/12/26 08:27:19;;;;;;;;;;;-5.90;99.90;;;;;;4916693;29;20443;-77
2021/12/26 08:29:44;;;;;;;6.68;2.50;;;-5.90;99.90;;;;;;4916035;29;20422;-77
2021/12/26 08:32:13;;;;;;;7.53;2.55;;;-5.80;99.90;;;;;;4915617;29;20405;-77
2021/12/26 08:34:39;;;;;;;5.18;2.60;;;-5.70;99.90;;;;;;4915359;29;20083;-77
2021/12/26 08:37:05;;;;;;;6.82;3.92;;;-5.60;99.90;;;;;;4900920;29;20075;-77
2021/12/26 08:39:32;;;;;;;;;;;-5.10;99.90;;;;;;4899081;29;20059;-77
2021/12/26 08:42:00;;;;;;;8.52;5.18;;;-4.10;99.90;;;;;;4899195;29;19983;-78
2021/12/26 08:44:26;;;;;;;6.57;3.85;;;-2.80;99.90;;;;;;4914871;29;20500;-77
2021/12/26 08:46:52;;;;;;;;;;;-1.80;99.90;;;;;;4913879;29;20067;-78
2021/12/26 08:49:19;;;;;;;5.82;3.47;;;-1.60;99.60;;;;;;4915303;29;19923;-79
2021/12/26 08:51:45;;;;;;;5.65;2.65;;;-1.40;99.80;;;;;;4898541;29;20099;-78
2021/12/26 08:54:11;;;;;;;4.95;2.65;;;-1.50;99.70;;;;;;4906426;29;20055;-77
2021/12/26 08:56:37;;;;;;;6.05;3.00;;;-1.60;99.50;;;;;;4921524;29;20122;-79
2021/12/26 08:59:04;;;;;;;5.28;2.97;;;-1.30;99.40;;;;;;4917676;29;20119;-77
2021/12/26 09:01:30;;;;;;;6.90;2.58;;;-1.00;99.90;;;;;;4916574;29;20048;-78
2021/12/26 09:03:55;;;;;;;5.95;3.00;;;-0.20;99.90;;;;;;4898387;29;20044;-78
2021/12/26 09:06:21;;;;;;;;;;;0.70;97.80;;;;;;4914805;29;20480;-78
2021/12/26 09:08:47;;;;;;;5.50;2.85;;;2.10;95.90;;;;;;4914888;29;19923;-77
2021/12/26 09:11:12;;;;;;;;;;;2.50;94.30;;;;;;4915666;29;20090;-77
2021/12/26 09:13:38;;;;;;;5.95;2.88;;;2.70;87.30;;;;;;4914782;29;19977;-78
2021/12/26 09:16:06;;;;;;;4.60;2.67;;;2.90;86.40;;;;;;4898478;29;20052;-78
2021/12/26 09:18:31;;;;;;;5.28;2.70;;;3.10;83.10;;;;;;4914653;29;20036;-77
2021/12/26 09:20:57;;;;;;;;;;;3.50;76.60;;;;;;4915193;29;20401;-78
2021/12/26 09:23:22;;;;;;;4.53;2.35;;;3.50;68.30;;;;;;4914717;29;19979;-77
2021/12/26 09:25:48;;;;;;;;;;;3.70;76.40;;;;;;4898727;29;20055;-77
2021/12/26 09:28:13;;;;;;;4.07;2.30;;;4.20;79.20;;;;;;4898135;29;20228;-80
2021/12/26 09:30:41;;;;;;;3.63;2.40;;;4.70;73.90;;;;;;4898430;29;20067;-83
2021/12/26 09:33:09;;;;;;;4.18;2.40;;;4.90;61.90;;;;;;4898362;29;20144;-84
2021/12/26 09:35:38;;;;;;;4.88;2.72;;;4.60;58.40;;;;;;4894022;29;20051;-85
2021/12/26 09:38:12;;;;;;;4.78;2.70;;;5.00;71.50;;;;;;4898485;29;20067;-81
2021/12/26 09:40:38;;;;;;;;;;;5.10;54.60;;;;;;4897995;29;20321;-77
2021/12/26 09:43:07;;;;;;;4.53;2.55;;;5.00;55.30;;;;;;4897843;29;20412;-79
2021/12/26 09:45:33;;;;;;;4.28;2.40;;;5.10;56.90;;;;;;4897788;29;20292;-78
2021/12/26 09:47:59;;;;;;;;;;;5.10;55.70;;;;;;4901057;29;20051;-81
2021/12/26 09:50:25;;;;;;;4.10;2.40;;;5.40;55.70;;;;;;4897626;29;19931;-84
2021/12/26 09:52:55;;;;;;;4.85;2.78;;;6.20;58.00;;;;;;4914918;29;20510;-80
2021/12/26 09:58:23;;;;;;;4.50;2.70;;;6.40;51.10;;;;;;4905842;29;20463;-79
2021/12/26 10:00:49;;;;;;;4.35;2.45;;;6.50;52.20;;;;;;4907353;29;20086;-80
2021/12/26 10:03:34;;;;;;;;;;;6.60;54.60;;;;;;4907168;29;20068;-83
2021/12/26 10:06:25;;;;;;;3.80;2.30;;;5.90;51.10;;;;;;4927030;29;19923;-80
2021/12/26 10:11:35;;;;;;;4.45;2.83;;;6.40;51.70;;;;;;5027531;23;20381;-78
2021/12/26 10:14:05;;;;;;;4.47;2.70;;;6.70;52.70;;;;;;4912534;29;20408;-77
2021/12/26 10:16:40;;;;;;;4.72;2.67;;;6.40;52.20;;;;;;4910548;29;20036;-77
2021/12/26 10:19:07;;;;;;;4.57;2.65;;;6.80;49.70;;;;;;4905837;29;20051;-79
2021/12/26 10:21:42;;;;;;;5.15;2.80;;;6.30;50.90;;;;;;4909769;29;20879;-81
2021/12/26 10:24:23;;;;;;;5.70;2.70;;;6.30;55.20;;;;;;4904763;29;20052;-84
2021/12/26 10:26:53;;;;;;;4.68;2.70;;;6.90;50.50;;;;;;4910986;29;20040;-78
2021/12/26 10:29:33;;;;;;;4.47;2.85;;;7.20;48.70;;;;;;4909450;29;20071;-81
2021/12/26 10:32:03;;;;;;;6.22;2.80;;;7.50;48.40;;;;;;4907282;29;20488;-83
2021/12/26 10:34:36;;;;;;;4.32;2.63;;;7.00;48.20;;;;;;4910999;29;20047;-82
2021/12/26 10:37:24;;;;;;;5.22;2.80;;;7.40;49.80;;;;;;4909359;29;20051;-82
2021/12/26 10:39:56;;;;;;;4.95;2.97;;;7.50;53.20;;;;;;4881964;29;20056;-80
2021/12/26 10:42:28;;;;;;;4.30;2.80;;;8.00;49.40;;;;;;4916081;29;20522;-76
2021/12/26 10:44:58;;;;;;;5.03;2.90;;;8.00;50.10;;;;;;4917554;29;20074;-79
2021/12/26 10:47:29;;;;;;;4.50;2.95;;;7.90;49.90;;;;;;4898663;29;20903;-76
2021/12/26 10:49:57;;;;;;;5.80;2.90;;;7.80;49.30;;;;;;4898418;29;20492;-76
2021/12/26 10:52:36;;;;;;;6.32;3.00;;;7.70;47.80;;;;;;4900470;29;20055;-76
2021/12/26 10:55:04;;;;;;;4.65;3.10;;;7.20;52.30;;;;;;4916862;29;20529;-78
2021/12/26 10:57:36;;;;;;;5.55;3.08;;;7.10;50.40;;;;;;4900855;29;20051;-77
2021/12/26 11:00:13;;;;;;;4.80;3.13;;;7.40;54.90;;;;;;4901156;29;20048;-77
2021/12/26 11:02:42;;;;;;;6.47;2.92;;;7.40;51.10;;;;;;4901431;29;20441;-77
2021/12/26 11:05:11;;;;;;;4.63;2.97;;;7.10;51.90;;;;;;4919000;29;20135;-76
2021/12/26 11:07:43;;;;;;;96.25;67.72;;;7.20;52.80;;;;;;4901223;29;20071;-74
2021/12/26 11:10:13;;;;;;;20.30;11.82;;;7.80;55.50;;;;;;4899715;29;20543;-74
2021/12/26 11:12:47;;;;;;;7.25;5.97;;;8.20;52.50;;;;;;4900417;29;20048;-75
2021/12/26 11:15:15;;;;;;;18.20;14.35;;;8.00;50.90;;;;;;4900415;29;20051;-75
2021/12/26 11:17:45;;;;;;;9.70;4.10;;;8.70;54.40;;;;;;4899872;29;20083;-76
2021/12/26 11:20:39;;;;;;;5.80;3.78;;;8.90;49.10;;;;;;4900959;29;20052;-76
2021/12/26 11:23:10;;;;;;;5.00;3.40;;;8.70;52.10;;;;;;4915325;29;20060;-75
2021/12/26 11:25:43;;;;;;;4.22;3.20;;;9.00;54.50;;;;;;4901653;29;20552;-75
2021/12/26 11:28:14;;;;;;;4.72;3.20;;;9.40;50.50;;;;;;4899139;29;20059;-76
2021/12/26 11:30:41;;;;;;;6.82;3.85;;;8.70;48.00;;;;;;4900139;29;20048;-76
2021/12/26 11:33:08;;;;;;;5.00;3.85;;;8.20;50.40;;;;;;4899422;29;20092;-75
2021/12/26 11:35:39;;;;;;;6.10;3.72;;;8.40;49.40;;;;;;4898727;29;20064;-75
2021/12/26 11:38:10;;;;;;;5.20;3.40;;;8.10;53.40;;;;;;4899761;29;20032;-75
2021/12/26 11:40:36;;;;;;;7.22;4.10;;;8.00;54.40;;;;;;4898233;29;20052;-74
2021/12/26 11:43:14;;;;;;;16.25;11.93;;;8.30;54.80;;;;;;4901064;29;20518;-79
2021/12/26 11:46:09;;;;;;;6.38;4.30;;;8.40;53.50;;;;;;4899717;29;20108;-74
2021/12/26 11:48:43;;;;;;;6.40;3.83;;;8.80;52.40;;;;;;4898602;29;20051;-73
2021/12/26 11:51:33;;;;;;;5.43;3.60;;;9.30;52.70;;;;;;4900065;29;20051;-74
2021/12/26 11:54:28;;;;;;;5.00;3.22;;;9.10;51.60;;;;;;4897787;29;20055;-73
2021/12/26 11:56:57;;;;;;;7.00;5.10;;;9.60;54.10;;;;;;4897812;29;20404;-74
2021/12/26 11:59:52;;;;;;;6.95;5.00;;;10.20;53.40;;;;;;4899696;29;20374;-74
2021/12/26 12:02:36;;;;;;;13.00;11.70;;;10.00;48.60;;;;;;4896395;29;20043;-75
2021/12/26 12:05:13;;;;;;;8.63;7.65;;;9.70;49.10;;;;;;4899707;29;20068;-74
2021/12/26 12:08:06;;;;;;;6.38;5.38;;;9.10;52.20;;;;;;4896233;29;20088;-75
2021/12/26 12:10:56;;;;;;;9.18;7.60;;;9.10;52.70;;;;;;4900054;29;20075;-75
2021/12/26 12:13:22;;;;;;;6.45;3.90;;;8.50;55.40;;;;;;4898537;29;20048;-74
2021/12/26 12:15:58;;;;;;;;;;;8.00;53.60;;;;;;4902902;29;20063;-74
2021/12/26 12:18:41;;;;;;;5.97;3.92;;;7.60;57.50;;;;;;4898421;29;20768;-74
2021/12/26 12:21:23;;;;;;;6.68;5.15;;;6.90;59.80;;;;;;4895337;29;20119;-75
2021/12/26 12:24:16;;;;;;;6.20;5.22;;;6.30;65.00;;;;;;4896515;29;20053;-77
2021/12/26 12:26:56;;;;;;;5.47;3.60;;;5.90;69.90;;;;;;4896348;29;20055;-75
2021/12/26 12:29:21;;;;;;;7.22;4.43;;;6.20;69.40;;;;;;4918926;29;20536;-75
2021/12/26 12:31:47;;;;;;;;;;;6.10;71.80;;;;;;4915838;29;20162;-76
2021/12/26 12:34:13;;;;;;;6.07;3.80;;;6.40;69.20;;;;;;4897008;29;19923;-77
2021/12/26 12:36:45;;;;;;;7.47;3.90;;;6.20;71.60;;;;;;4913223;29;20123;-75
2021/12/26 12:39:15;;;;;;;5.85;3.53;;;6.30;71.00;;;;;;4897689;29;20171;-77
2021/12/26 12:41:43;;;;;;;9.70;8.20;;;6.60;72.80;;;;;;4914795;29;20044;-76
2021/12/26 12:44:30;;;;;;;5.90;4.35;;;7.00;73.20;;;;;;4893969;29;20044;-77
2021/12/26 12:47:13;;;;;;;5.40;3.90;;;7.60;68.20;;;;;;4897356;29;20059;-75
2021/12/26 12:49:49;;;;;;;6.53;4.38;;;7.60;68.40;;;;;;4896350;29;20118;-72
2021/12/26 12:52:36;;;;;;;5.40;3.70;;;7.20;67.30;;;;;;4897176;29;20063;-73
2021/12/26 12:55:09;;;;;;;6.03;3.85;;;6.30;73.60;;;;;;4896979;29;20048;-77
2021/12/26 12:57:42;;;;;;;4.70;3.25;;;6.50;75.80;;;;;;4895702;29;20048;-75
2021/12/26 13:03:34;;;;;;;6.88;4.63;;;6.80;72.70;;;;;;4938731;23;20146;-74
2021/12/26 13:06:09;;;;;;;6.88;4.40;;;7.10;75.40;;;;;;4904328;29;20102;-74
2021/12/26 13:08:36;;;;;;;5.75;3.47;;;6.40;73.50;;;;;;4914823;29;20036;-73
2021/12/26 13:11:03;;;;;;;6.43;3.97;;;6.30;77.10;;;;;;4917714;29;20114;-76
2021/12/26 13:13:29;;;;;;;6.78;4.57;;;6.40;76.90;;;;;;4918218;29;20487;-76
2021/12/26 13:15:55;;;;;;;;;;;6.10;79.30;;;;;;4918409;29;20127;-77
2021/12/26 13:18:23;;;;;;;6.80;4.20;;;5.80;79.20;;;;;;4916255;29;20022;-75